Time;durP1;ratioP1;P1;durP2;ratioP2;P2;SDS_P1;SDS_P2;PMS_P1;PMS_P2;Temp;Humidity;BMP_temperature;BMP_pressure;BME280_temperature;BME280_humidity;BME280_pressure;Samples;Min_cycle;Max_cycle;Signal;HPM_P1;HPM_P2
2021/12/14 00:00:29;;;;;;;3.03;1.50;;;;;;;;;;5075195;28;20417;-66
2021/12/14 00:02:55;;;;;;;1.20;0.70;;;;;;;;;;5075437;28;20479;-66
2021/12/14 00:05:22;;;;;;;5.37;1.13;;;;;;;;;;5075323;28;20890;-66
2021/12/14 00:07:49;;;;;;;1.73;1.00;;;;;;;;;;5075320;28;20550;-66
2021/12/14 00:13:01;;;;;;;2.97;1.27;;;;;;;;;;5095469;28;20406;-66
2021/12/14 00:15:28;;;;;;;2.10;1.20;;;;;;;;;;5079222;28;20410;-66
2021/12/14 00:17:56;;;;;;;2.30;1.30;;;;;;;;;;5078973;28;20437;-66
2021/12/14 00:20:27;;;;;;;1.97;1.17;;;;;;;;;;5078641;28;20461;-66
2021/12/14 00:25:26;;;;;;;2.13;1.07;;;;;;;;;;5097154;28;20463;-66
2021/12/14 00:27:53;;;;;;;2.00;1.10;;;;;;;;;;5079157;28;20426;-66
2021/12/14 00:30:19;;;;;;;2.97;1.10;;;;;;;;;;5078671;28;20402;-66
2021/12/14 00:32:45;;;;;;;1.80;1.03;;;;;;;;;;5079313;28;20447;-66
2021/12/14 00:35:13;;;;;;;2.00;1.17;;;;;;;;;;5078993;28;20406;-66
2021/12/14 00:37:45;;;;;;;2.17;1.00;;;;;;;;;;5079017;28;20433;-66
2021/12/14 00:40:23;;;;;;;2.20;1.30;;;;;;;;;;5078500;28;20448;-66
2021/12/14 00:42:50;;;;;;;1.80;0.90;;;;;;;;;;5078810;28;20635;-66
2021/12/14 00:45:16;;;;;;;2.17;1.07;;;;;;;;;;5078894;28;20414;-66
2021/12/14 00:47:42;;;;;;;3.20;1.40;;;;;;;;;;5078697;28;20429;-65
2021/12/14 00:50:09;;;;;;;3.43;1.60;;;;;;;;;;5078227;28;20410;-66
2021/12/14 00:52:36;;;;;;;4.43;1.50;;;;;;;;;;5078675;28;20426;-66
2021/12/14 00:55:03;;;;;;;2.10;1.10;;;;;;;;;;5078779;28;20496;-66
2021/12/14 00:57:31;;;;;;;1.50;0.80;;;;;;;;;;5078606;28;20434;-66
2021/12/14 00:59:57;;;;;;;1.60;0.90;;;;;;;;;;5078374;28;20413;-66
2021/12/14 01:02:24;;;;;;;1.53;1.03;;;;;;;;;;5078632;28;20457;-66
2021/12/14 01:04:59;;;;;;;1.80;1.10;;;;;;;;;;5078228;28;20408;-66
2021/12/14 01:07:29;;;;;;;3.97;1.10;;;;;;;;;;5078256;28;20437;-66
2021/12/14 01:09:57;;;;;;;4.50;1.23;;;;;;;;;;5077956;28;20434;-66
2021/12/14 01:12:35;;;;;;;1.60;0.90;;;;;;;;;;5078455;28;20406;-66
2021/12/14 01:18:30;;;;;;;1.30;0.70;;;;;;;;;;5096497;28;20418;-66
2021/12/14 01:20:46;;;;;;;1.57;1.00;;;;;;;;;;5091821;28;20414;-66
2021/12/14 01:23:18;;;;;;;1.40;1.00;;;;;;;;;;5077549;28;20402;-66
2021/12/14 01:25:47;;;;;;;1.73;0.90;;;;;;;;;;5077810;28;20516;-66
2021/12/14 01:28:16;;;;;;;1.90;1.03;;;;;;;;;;5078052;28;20936;-66
2021/12/14 01:30:54;;;;;;;1.90;1.10;;;;;;;;;;5077751;28;20408;-65
2021/12/14 01:33:23;;;;;;;2.23;1.00;;;;;;;;;;5078170;28;20480;-66
2021/12/14 01:35:49;;;;;;;4.73;0.80;;;;;;;;;;5077881;28;20410;-66
2021/12/14 01:40:55;;;;;;;1.50;0.83;;;;;;;;;;5095611;28;20398;-66
2021/12/14 01:43:26;;;;;;;1.83;1.00;;;;;;;;;;5077826;28;20522;-66
2021/12/14 01:45:53;;;;;;;1.47;0.90;;;;;;;;;;5077720;28;20413;-66
2021/12/14 01:48:20;;;;;;;1.83;1.07;;;;;;;;;;5077699;28;20483;-66
2021/12/14 01:50:49;;;;;;;1.60;0.80;;;;;;;;;;5077283;28;20444;-66
2021/12/14 01:53:16;;;;;;;1.30;0.87;;;;;;;;;;5077704;28;20866;-66
2021/12/14 01:55:50;;;;;;;1.30;0.80;;;;;;;;;;5077595;28;20870;-66
2021/12/14 01:58:16;;;;;;;2.60;1.13;;;;;;;;;;5077541;28;20422;-66
2021/12/14 02:00:54;;;;;;;2.33;0.80;;;;;;;;;;5076899;28;20402;-66
2021/12/14 02:03:21;;;;;;;1.27;0.90;;;;;;;;;;5077379;28;20932;-66
2021/12/14 02:05:48;;;;;;;1.23;0.77;;;;;;;;;;5076977;28;20401;-66
2021/12/14 02:08:18;;;;;;;1.87;1.00;;;;;;;;;;5076909;28;20453;-66
2021/12/14 02:10:44;;;;;;;1.83;1.10;;;;;;;;;;5076858;28;20405;-66
2021/12/14 02:13:11;;;;;;;1.60;0.90;;;;;;;;;;5076948;28;20394;-66
2021/12/14 02:15:39;;;;;;;1.50;0.70;;;;;;;;;;5077084;28;20433;-66
2021/12/14 02:18:11;;;;;;;3.03;1.17;;;;;;;;;;5077034;28;21002;-65
2021/12/14 02:20:39;;;;;;;1.80;0.93;;;;;;;;;;5076386;28;20390;-66
2021/12/14 02:23:06;;;;;;;6.13;1.73;;;;;;;;;;5077000;28;20453;-66
2021/12/14 02:25:32;;;;;;;5.00;1.50;;;;;;;;;;5076870;28;20743;-66
2021/12/14 02:28:01;;;;;;;1.40;0.90;;;;;;;;;;5076584;28;20424;-67
2021/12/14 02:30:28;;;;;;;2.70;0.93;;;;;;;;;;5076505;28;20413;-67
2021/12/14 02:32:55;;;;;;;6.10;0.80;;;;;;;;;;5076899;28;20406;-66
2021/12/14 02:35:23;;;;;;;1.60;0.90;;;;;;;;;;5076483;28;20976;-66
2021/12/14 02:37:55;;;;;;;3.40;0.87;;;;;;;;;;5076663;28;20428;-66
2021/12/14 02:40:32;;;;;;;1.30;0.70;;;;;;;;;;5076523;28;20398;-66
2021/12/14 02:43:00;;;;;;;1.57;0.97;;;;;;;;;;5076771;28;20502;-66
2021/12/14 02:45:27;;;;;;;1.40;0.70;;;;;;;;;;5076738;28;20394;-66
2021/12/14 02:47:53;;;;;;;1.53;0.80;;;;;;;;;;5076670;28;20977;-66
2021/12/14 02:50:21;;;;;;;1.40;0.90;;;;;;;;;;5076118;28;20424;-66
2021/12/14 02:52:47;;;;;;;1.60;0.80;;;;;;;;;;5076451;28;20475;-66
2021/12/14 02:55:15;;;;;;;1.23;0.73;;;;;;;;;;5076171;28;20526;-66
2021/12/14 02:57:44;;;;;;;1.40;0.80;;;;;;;;;;5076191;28;20925;-66
2021/12/14 03:00:13;;;;;;;1.20;0.77;;;;;;;;;;5075918;28;20455;-66
2021/12/14 03:02:39;;;;;;;1.20;0.70;;;;;;;;;;5076377;28;20469;-66
2021/12/14 03:05:11;;;;;;;1.10;0.80;;;;;;;;;;5076118;28;20404;-66
2021/12/14 03:07:42;;;;;;;1.30;0.70;;;;;;;;;;5076189;28;20414;-66
2021/12/14 03:13:07;;;;;;;1.10;0.70;;;;;;;;;;5076545;28;20406;-66
2021/12/14 03:15:46;;;;;;;1.87;0.93;;;;;;;;;;5076023;28;20409;-66
2021/12/14 03:18:14;;;;;;;1.87;0.90;;;;;;;;;;5076027;28;20418;-66
2021/12/14 03:20:44;;;;;;;1.67;0.97;;;;;;;;;;5075646;28;20414;-66
2021/12/14 03:23:16;;;;;;;1.57;0.90;;;;;;;;;;5075821;28;20461;-66
2021/12/14 03:25:44;;;;;;;1.20;0.80;;;;;;;;;;5075823;28;20422;-66
2021/12/14 03:28:11;;;;;;;1.60;0.90;;;;;;;;;;5093906;28;20414;-67
2021/12/14 03:30:42;;;;;;;1.50;0.80;;;;;;;;;;5075341;28;20746;-66
2021/12/14 03:33:17;;;;;;;1.13;0.70;;;;;;;;;;5075938;28;20869;-67
2021/12/14 03:36:07;;;;;;;1.10;0.63;;;;;;;;;;5075651;28;20502;-67
2021/12/14 03:38:35;;;;;;;1.50;1.00;;;;;;;;;;5065524;28;20430;-66
2021/12/14 03:41:06;;;;;;;1.73;0.90;;;;;;;;;;5075350;28;20409;-66
2021/12/14 03:43:32;;;;;;;1.00;0.60;;;;;;;;;;5075760;28;21008;-66
2021/12/14 03:45:58;;;;;;;1.10;0.60;;;;;;;;;;5075559;28;20410;-66
2021/12/14 03:48:26;;;;;;;2.00;0.80;;;;;;;;;;5075100;28;20452;-67
2021/12/14 03:50:52;;;;;;;4.30;0.80;;;;;;;;;;5075251;28;20426;-67
2021/12/14 03:53:20;;;;;;;1.10;0.60;;;;;;;;;;5075623;28;20432;-67
2021/12/14 03:55:48;;;;;;;1.30;0.80;;;;;;;;;;5075459;28;20406;-65
2021/12/14 03:58:15;;;;;;;1.10;0.70;;;;;;;;;;5075356;28;20418;-66
2021/12/14 04:00:44;;;;;;;1.40;1.20;;;;;;;;;;5075102;28;20902;-66
2021/12/14 04:03:11;;;;;;;1.10;0.60;;;;;;;;;;5075443;28;20461;-66
2021/12/14 04:05:41;;;;;;;1.00;0.60;;;;;;;;;;5075298;28;20497;-66
2021/12/14 04:08:07;;;;;;;1.67;0.80;;;;;;;;;;5075222;28;20430;-66
2021/12/14 04:10:36;;;;;;;1.20;0.80;;;;;;;;;;5075093;28;20433;-66
2021/12/14 04:13:03;;;;;;;1.10;0.90;;;;;;;;;;5075356;28;20809;-66
2021/12/14 04:15:29;;;;;;;1.00;0.60;;;;;;;;;;5075156;28;20406;-66
2021/12/14 04:17:56;;;;;;;1.37;0.87;;;;;;;;;;5075271;28;20433;-66
2021/12/14 04:20:32;;;;;;;1.10;0.70;;;;;;;;;;5093018;28;20413;-66
2021/12/14 04:22:59;;;;;;;1.20;0.70;;;;;;;;;;5075363;28;20453;-66
2021/12/14 04:25:28;;;;;;;1.47;0.80;;;;;;;;;;5075039;28;20929;-66
2021/12/14 04:27:54;;;;;;;1.30;0.80;;;;;;;;;;5075310;28;20422;-66
2021/12/14 04:30:22;;;;;;;1.03;0.70;;;;;;;;;;5074859;28;20937;-66
2021/12/14 04:32:49;;;;;;;1.27;0.80;;;;;;;;;;5075374;28;20716;-66
2021/12/14 04:35:15;;;;;;;1.10;0.70;;;;;;;;;;5075097;28;20420;-66
2021/12/14 04:37:43;;;;;;;1.97;0.80;;;;;;;;;;5075124;28;20449;-66
2021/12/14 04:40:22;;;;;;;1.27;0.70;;;;;;;;;;5074959;28;20442;-66
2021/12/14 04:53:49;;;;;;;1.20;0.80;;;;;;;;;;5093138;28;20413;-65
2021/12/14 04:56:22;;;;;;;1.60;0.67;;;;;;;;;;5074987;28;20398;-66
2021/12/14 04:59:03;;;;;;;1.50;1.00;;;;;;;;;;5076863;28;20966;-65
2021/12/14 05:01:32;;;;;;;1.47;0.70;;;;;;;;;;5078294;28;20465;-65
2021/12/14 05:04:01;;;;;;;7.93;0.80;;;;;;;;;;5078535;28;20480;-65
2021/12/14 05:06:33;;;;;;;1.57;0.90;;;;;;;;;;5078550;28;20433;-65
2021/12/14 05:09:22;;;;;;;1.73;0.80;;;;;;;;;;5078575;28;20984;-65
2021/12/14 05:11:49;;;;;;;1.40;0.80;;;;;;;;;;5078523;28;20414;-65
2021/12/14 05:14:16;;;;;;;1.40;0.90;;;;;;;;;;5078343;28;20422;-65
2021/12/14 05:16:42;;;;;;;1.43;0.87;;;;;;;;;;5078390;28;20416;-66
2021/12/14 05:19:10;;;;;;;1.50;1.00;;;;;;;;;;5078176;28;20405;-66
2021/12/14 05:21:48;;;;;;;1.10;0.73;;;;;;;;;;5077868;28;20456;-65
2021/12/14 05:24:17;;;;;;;1.20;0.63;;;;;;;;;;5078293;28;20409;-66
2021/12/14 05:26:43;;;;;;;1.20;0.80;;;;;;;;;;5078033;28;20470;-65
2021/12/14 05:29:10;;;;;;;1.00;0.60;;;;;;;;;;5078194;28;20428;-65
2021/12/14 05:31:47;;;;;;;1.13;0.63;;;;;;;;;;5077671;28;20406;-65
2021/12/14 05:34:14;;;;;;;1.40;0.80;;;;;;;;;;5077941;28;20409;-66
2021/12/14 05:36:41;;;;;;;1.13;0.63;;;;;;;;;;5077900;28;20786;-66
2021/12/14 05:39:32;;;;;;;1.47;0.83;;;;;;;;;;5078197;28;20410;-66
2021/12/14 05:44:49;;;;;;;1.10;0.70;;;;;;;;;;5057416;28;20406;-66
2021/12/14 05:47:17;;;;;;;0.90;0.60;;;;;;;;;;5077411;28;20453;-66
2021/12/14 05:49:44;;;;;;;1.00;0.60;;;;;;;;;;5077137;28;20422;-66
2021/12/14 05:52:11;;;;;;;1.40;0.80;;;;;;;;;;5077799;28;20422;-66
2021/12/14 05:54:38;;;;;;;0.90;0.60;;;;;;;;;;5077401;28;20409;-66
2021/12/14 05:57:06;;;;;;;3.67;0.70;;;;;;;;;;5077326;28;20840;-66
2021/12/14 05:59:33;;;;;;;3.23;0.80;;;;;;;;;;5076880;28;20394;-66
2021/12/14 06:01:59;;;;;;;10.47;0.87;;;;;;;;;;5077219;28;20542;-66
2021/12/14 06:04:27;;;;;;;1.00;0.70;;;;;;;;;;5077488;28;20479;-66
2021/12/14 06:06:54;;;;;;;1.10;0.70;;;;;;;;;;5077149;28;20417;-66
2021/12/14 06:09:23;;;;;;;1.63;0.70;;;;;;;;;;5076439;28;20398;-66
2021/12/14 06:11:49;;;;;;;1.20;0.60;;;;;;;;;;5077074;28;20402;-66
2021/12/14 06:14:18;;;;;;;1.10;0.60;;;;;;;;;;5076300;28;20413;-66
2021/12/14 06:16:45;;;;;;;1.13;0.70;;;;;;;;;;5076117;28;20909;-66
2021/12/14 06:19:17;;;;;;;1.83;0.70;;;;;;;;;;5076365;28;20433;-66
2021/12/14 06:21:44;;;;;;;1.30;1.07;;;;;;;;;;5076395;28;20457;-66
2021/12/14 06:24:11;;;;;;;1.37;0.73;;;;;;;;;;5076462;28;20937;-66
2021/12/14 06:26:39;;;;;;;1.10;0.70;;;;;;;;;;5076541;28;20516;-66
2021/12/14 06:29:25;;;;;;;0.90;0.57;;;;;;;;;;5076611;28;20429;-66
2021/12/14 06:31:52;;;;;;;1.53;1.00;;;;;;;;;;5076114;28;20406;-66
2021/12/14 06:34:20;;;;;;;1.13;0.80;;;;;;;;;;5076806;28;20460;-66
2021/12/14 06:36:53;;;;;;;1.00;0.70;;;;;;;;;;5076804;28;20451;-66
2021/12/14 06:39:20;;;;;;;1.60;1.00;;;;;;;;;;5076667;28;20917;-66
2021/12/14 06:41:46;;;;;;;1.20;0.80;;;;;;;;;;5076594;28;20461;-66
2021/12/14 06:44:12;;;;;;;1.20;0.70;;;;;;;;;;5076600;28;20401;-66
2021/12/14 06:46:40;;;;;;;1.13;0.70;;;;;;;;;;5076513;28;20754;-66
2021/12/14 06:49:12;;;;;;;3.20;0.70;;;;;;;;;;5076568;28;20854;-66
2021/12/14 06:51:46;;;;;;;1.17;0.70;;;;;;;;;;5076037;28;20394;-66
2021/12/14 06:54:20;;;;;;;1.47;0.70;;;;;;;;;;5076309;28;20402;-66
2021/12/14 06:56:51;;;;;;;1.20;0.70;;;;;;;;;;5076311;28;20416;-66
2021/12/14 06:59:20;;;;;;;2.23;0.70;;;;;;;;;;5076211;28;20429;-66
2021/12/14 07:02:00;;;;;;;1.53;0.67;;;;;;;;;;5076140;28;20461;-66
2021/12/14 07:04:32;;;;;;;1.50;0.80;;;;;;;;;;5076284;28;20796;-66
2021/12/14 07:07:03;;;;;;;1.17;0.60;;;;;;;;;;5076076;28;20445;-66
2021/12/14 07:09:33;;;;;;;1.40;0.80;;;;;;;;;;5075783;28;20878;-66
2021/12/14 07:12:03;;;;;;;1.17;0.60;;;;;;;;;;5076260;28;20789;-66
2021/12/14 07:14:29;;;;;;;1.00;0.70;;;;;;;;;;5094358;28;20945;-66
2021/12/14 07:17:03;;;;;;;1.67;0.73;;;;;;;;;;5076059;28;20402;-67
2021/12/14 07:19:51;;;;;;;1.00;0.60;;;;;;;;;;5075859;28;20409;-66
2021/12/14 07:22:28;;;;;;;1.37;0.90;;;;;;;;;;5075172;28;20457;-66
2021/12/14 07:25:00;;;;;;;1.70;1.00;;;;;;;;;;5073944;28;20728;-66
2021/12/14 07:27:30;;;;;;;4.40;1.20;;;;;;;;;;5075499;28;20463;-66
2021/12/14 07:30:10;;;;;;;2.30;0.97;;;;;;;;;;5075099;28;20425;-66
2021/12/14 07:32:37;;;;;;;2.07;1.00;;;;;;;;;;5075556;28;20482;-66
2021/12/14 07:35:33;;;;;;;1.57;0.90;;;;;;;;;;5075596;28;20414;-66
2021/12/14 07:38:01;;;;;;;1.47;0.97;;;;;;;;;;5058229;28;20418;-66
2021/12/14 07:40:33;;;;;;;1.63;1.10;;;;;;;;;;5074963;28;20409;-65
2021/12/14 07:43:07;;;;;;;2.17;1.50;;;;;;;;;;5075143;28;20494;-65
2021/12/14 07:45:33;;;;;;;3.10;1.47;;;;;;;;;;5075274;28;20751;-66
2021/12/14 07:47:59;;;;;;;1.70;0.77;;;;;;;;;;5075234;28;20921;-66
2021/12/14 07:50:57;;;;;;;1.33;0.90;;;;;;;;;;5074995;28;20556;-66
2021/12/14 07:53:40;;;;;;;2.00;1.00;;;;;;;;;;5031865;28;20410;-66
2021/12/14 07:56:06;;;;;;;7.13;1.33;;;;;;;;;;5075281;28;20406;-65
2021/12/14 07:58:34;;;;;;;2.00;1.00;;;;;;;;;;5075269;28;20430;-65
2021/12/14 08:01:00;;;;;;;9.77;0.90;;;;;;;;;;5074826;28;20506;-65
2021/12/14 08:03:33;;;;;;;3.13;1.30;;;;;;;;;;5074819;28;20418;-65
2021/12/14 08:06:00;;;;;;;6.63;1.23;;;;;;;;;;5075112;28;20421;-65
2021/12/14 08:08:45;;;;;;;10.90;1.50;;;;;;;;;;5074983;28;20426;-65
2021/12/14 08:13:57;;;;;;;10.43;1.00;;;;;;;;;;5092981;28;20492;-65
2021/12/14 08:16:25;;;;;;;5.17;1.43;;;;;;;;;;5074965;28;20406;-65
2021/12/14 08:18:52;;;;;;;6.97;1.33;;;;;;;;;;5092912;28;20418;-65
2021/12/14 08:21:20;;;;;;;8.73;1.27;;;;;;;;;;5092751;28;20442;-65
2021/12/14 08:23:52;;;;;;;15.53;1.53;;;;;;;;;;5074827;28;20431;-64
2021/12/14 08:26:22;;;;;;;10.37;1.83;;;;;;;;;;5074922;28;20816;-65
2021/12/14 08:28:53;;;;;;;5.13;1.10;;;;;;;;;;5074788;28;20425;-65
2021/12/14 08:31:21;;;;;;;5.63;1.47;;;;;;;;;;5074568;28;20406;-64
2021/12/14 08:33:58;;;;;;;6.03;1.13;;;;;;;;;;5076532;28;20409;-64
2021/12/14 08:36:24;;;;;;;6.80;0.83;;;;;;;;;;5078725;28;20397;-64
2021/12/14 08:39:05;;;;;;;4.97;1.47;;;;;;;;;;5078372;28;20515;-64
2021/12/14 08:41:31;;;;;;;7.53;1.03;;;;;;;;;;5078107;28;20495;-64
2021/12/14 08:44:00;;;;;;;3.93;1.20;;;;;;;;;;5078422;28;20550;-64
2021/12/14 08:46:28;;;;;;;4.70;1.07;;;;;;;;;;5078741;28;20422;-65
2021/12/14 08:48:57;;;;;;;9.60;1.20;;;;;;;;;;5078450;28;20425;-65
2021/12/14 08:51:26;;;;;;;2.10;1.10;;;;;;;;;;5078218;28;20436;-65
2021/12/14 08:54:18;;;;;;;5.03;1.33;;;;;;;;;;5096665;28;20405;-65
2021/12/14 08:56:47;;;;;;;4.03;1.10;;;;;;;;;;5074852;28;20406;-64
2021/12/14 08:59:13;;;;;;;6.67;1.20;;;;;;;;;;5078315;28;20468;-64
2021/12/14 09:01:42;;;;;;;11.67;1.20;;;;;;;;;;5077928;28;20457;-64
2021/12/14 09:04:14;;;;;;;10.33;1.43;;;;;;;;;;5078252;28;20421;-64
2021/12/14 09:06:43;;;;;;;1.43;0.70;;;;;;;;;;5077938;28;20413;-64
2021/12/14 09:09:11;;;;;;;1.53;0.87;;;;;;;;;;5078221;28;20406;-64
2021/12/14 09:11:41;;;;;;;3.80;0.90;;;;;;;;;;5077984;28;20401;-64
2021/12/14 09:14:13;;;;;;;2.30;0.87;;;;;;;;;;5077899;28;20448;-64
2021/12/14 09:16:41;;;;;;;3.47;1.10;;;;;;;;;;5077916;28;20789;-64
2021/12/14 09:19:15;;;;;;;4.10;0.90;;;;;;;;;;5077856;28;20410;-64
2021/12/14 09:21:43;;;;;;;3.70;1.10;;;;;;;;;;5077180;28;20468;-64
2021/12/14 09:24:11;;;;;;;3.20;1.00;;;;;;;;;;5077466;28;20406;-64
2021/12/14 09:26:39;;;;;;;5.00;1.10;;;;;;;;;;5077894;28;20458;-64
2021/12/14 09:29:07;;;;;;;4.10;0.83;;;;;;;;;;5077667;28;20422;-65
2021/12/14 09:31:37;;;;;;;1.97;0.90;;;;;;;;;;5076998;28;20410;-65
2021/12/14 09:34:04;;;;;;;3.03;1.00;;;;;;;;;;5077480;28;20496;-64
2021/12/14 09:36:30;;;;;;;2.03;0.87;;;;;;;;;;5077236;28;20409;-64
2021/12/14 09:38:59;;;;;;;11.90;1.10;;;;;;;;;;5077382;28;20473;-64
2021/12/14 09:41:27;;;;;;;2.70;1.00;;;;;;;;;;5077219;28;20465;-64
2021/12/14 09:43:54;;;;;;;2.53;1.00;;;;;;;;;;5077397;28;20418;-65
2021/12/14 09:46:21;;;;;;;2.00;1.00;;;;;;;;;;5076232;28;20427;-64
2021/12/14 09:48:51;;;;;;;1.77;0.97;;;;;;;;;;5095686;28;20449;-64
2021/12/14 09:51:19;;;;;;;4.70;1.03;;;;;;;;;;5077174;28;20909;-64
2021/12/14 09:53:49;;;;;;;3.10;1.07;;;;;;;;;;5077507;28;20472;-65
2021/12/14 09:56:16;;;;;;;2.57;1.13;;;;;;;;;;5077359;28;20414;-64
2021/12/14 09:58:47;;;;;;;2.43;1.10;;;;;;;;;;5095380;28;20490;-65
2021/12/14 10:01:19;;;;;;;6.03;1.23;;;;;;;;;;5076728;28;20442;-64
2021/12/14 10:03:47;;;;;;;2.37;1.00;;;;;;;;;;5077200;28;20409;-64
2021/12/14 10:06:14;;;;;;;3.53;1.30;;;;;;;;;;5077132;28;20505;-64
2021/12/14 10:08:43;;;;;;;3.13;0.90;;;;;;;;;;5077028;28;20838;-65
2021/12/14 10:11:37;;;;;;;3.47;0.90;;;;;;;;;;5076655;28;20402;-65
2021/12/14 10:14:04;;;;;;;3.90;1.00;;;;;;;;;;5076925;28;20429;-65
2021/12/14 10:16:30;;;;;;;1.13;0.80;;;;;;;;;;5077007;28;20825;-64
2021/12/14 10:19:01;;;;;;;4.47;1.00;;;;;;;;;;5076528;28;20478;-64
2021/12/14 10:21:36;;;;;;;1.27;0.70;;;;;;;;;;5076416;28;20456;-64
2021/12/14 10:24:03;;;;;;;1.60;1.10;;;;;;;;;;5076809;28;20486;-64
2021/12/14 10:26:30;;;;;;;3.70;1.00;;;;;;;;;;5076575;28;20434;-64
2021/12/14 10:28:57;;;;;;;1.30;0.70;;;;;;;;;;5076557;28;20849;-64
2021/12/14 10:31:29;;;;;;;1.50;0.93;;;;;;;;;;5076361;28;20410;-64
2021/12/14 10:33:57;;;;;;;4.77;1.10;;;;;;;;;;5076624;28;20477;-64
2021/12/14 10:36:30;;;;;;;3.63;0.87;;;;;;;;;;5094758;28;20425;-64
2021/12/14 10:39:21;;;;;;;2.13;1.00;;;;;;;;;;5076647;28;20465;-64
2021/12/14 10:44:39;;;;;;;2.13;1.00;;;;;;;;;;5094993;28;20746;-64
2021/12/14 10:47:06;;;;;;;3.80;0.90;;;;;;;;;;5076178;28;20433;-64
2021/12/14 10:49:32;;;;;;;1.87;1.20;;;;;;;;;;5075952;28;20413;-64
2021/12/14 10:52:00;;;;;;;2.50;1.43;;;;;;;;;;5075949;28;20866;-63
2021/12/14 10:54:27;;;;;;;1.70;1.00;;;;;;;;;;5076338;28;20541;-62
2021/12/14 10:56:54;;;;;;;2.00;1.23;;;;;;;;;;5075810;28;20410;-64
2021/12/14 10:59:23;;;;;;;1.93;1.10;;;;;;;;;;5075831;28;20498;-64
2021/12/14 11:01:50;;;;;;;1.57;1.17;;;;;;;;;;5076181;28;20461;-64
2021/12/14 11:04:20;;;;;;;1.60;1.27;;;;;;;;;;5076081;28;20414;-64
2021/12/14 11:06:48;;;;;;;2.50;1.63;;;;;;;;;;5075927;28;20414;-65
2021/12/14 11:09:42;;;;;;;3.73;1.50;;;;;;;;;;5075913;28;20753;-65
2021/12/14 11:12:20;;;;;;;3.83;1.47;;;;;;;;;;5075693;28;20420;-65
2021/12/14 11:14:48;;;;;;;2.50;1.40;;;;;;;;;;5074528;28;20982;-66
2021/12/14 11:20:02;;;;;;;2.30;1.47;;;;;;;;;;5093254;28;20420;-66
2021/12/14 11:22:43;;;;;;;5.70;1.47;;;;;;;;;;5075217;28;20825;-65
2021/12/14 11:25:16;;;;;;;4.80;1.40;;;;;;;;;;5075019;28;20449;-66
2021/12/14 11:27:44;;;;;;;4.83;1.20;;;;;;;;;;5074781;28;20434;-66
2021/12/14 11:30:17;;;;;;;1.93;1.20;;;;;;;;;;5074624;28;20406;-66
2021/12/14 11:32:43;;;;;;;1.70;1.10;;;;;;;;;;5075200;28;20925;-66
2021/12/14 11:35:25;;;;;;;2.70;1.57;;;;;;;;;;5075525;28;20917;-66
2021/12/14 11:37:51;;;;;;;3.30;1.20;;;;;;;;;;5075551;28;20426;-66
2021/12/14 11:40:20;;;;;;;3.87;1.20;;;;;;;;;;5075051;28;20818;-66
2021/12/14 11:42:47;;;;;;;2.10;0.90;;;;;;;;;;5075374;28;20449;-66
2021/12/14 11:45:19;;;;;;;2.10;1.30;;;;;;;;;;5075208;28;20902;-66
2021/12/14 11:47:47;;;;;;;2.43;1.10;;;;;;;;;;5075136;28;20838;-66
2021/12/14 11:50:20;;;;;;;1.90;1.30;;;;;;;;;;5074717;28;20493;-67
2021/12/14 11:53:05;;;;;;;3.80;1.17;;;;;;;;;;5075222;28;20417;-65
2021/12/14 11:55:34;;;;;;;5.77;1.40;;;;;;;;;;5092632;28;20402;-67
2021/12/14 11:58:09;;;;;;;8.93;1.30;;;;;;;;;;5074749;28;20959;-66
2021/12/14 12:00:37;;;;;;;3.20;1.47;;;;;;;;;;5074774;28;20488;-66
2021/12/14 12:03:21;;;;;;;1.60;1.10;;;;;;;;;;5075081;28;20489;-66
2021/12/14 12:06:14;;;;;;;3.30;1.30;;;;;;;;;;5075078;28;20489;-65
2021/12/14 12:11:39;;;;;;;2.00;1.07;;;;;;;;;;5097933;28;20924;-66
2021/12/14 12:14:21;;;;;;;1.60;1.07;;;;;;;;;;5099533;28;20475;-66
2021/12/14 12:16:48;;;;;;;3.20;1.40;;;;;;;;;;5099745;28;20421;-66
2021/12/14 12:19:19;;;;;;;7.03;1.00;;;;;;;;;;5081157;28;20492;-65
2021/12/14 12:21:48;;;;;;;3.10;1.27;;;;;;;;;;5087848;28;20455;-66
2021/12/14 12:24:33;;;;;;;2.00;1.20;;;;;;;;;;5099248;28;20467;-66
2021/12/14 12:27:15;;;;;;;1.30;0.90;;;;;;;;;;5080591;28;20448;-66
2021/12/14 12:29:42;;;;;;;3.00;1.17;;;;;;;;;;5099037;28;20421;-66
2021/12/14 12:32:18;;;;;;;2.10;1.07;;;;;;;;;;5081377;28;20425;-66
2021/12/14 12:34:45;;;;;;;3.60;0.97;;;;;;;;;;5099546;28;20423;-66
2021/12/14 12:37:12;;;;;;;1.87;1.10;;;;;;;;;;5081137;28;20451;-66
2021/12/14 12:39:38;;;;;;;1.53;1.00;;;;;;;;;;5080344;28;20789;-66
2021/12/14 12:42:05;;;;;;;5.47;1.10;;;;;;;;;;5080990;28;20486;-66
2021/12/14 12:44:34;;;;;;;3.60;1.10;;;;;;;;;;5081022;28;20425;-66
2021/12/14 12:47:08;;;;;;;3.50;1.30;;;;;;;;;;5099762;28;20413;-66
2021/12/14 12:49:40;;;;;;;5.47;1.10;;;;;;;;;;5080728;28;20425;-66
2021/12/14 12:52:08;;;;;;;3.10;1.10;;;;;;;;;;5099369;28;20419;-66
2021/12/14 12:54:43;;;;;;;2.30;1.00;;;;;;;;;;5080697;28;20429;-67
2021/12/14 12:57:09;;;;;;;3.07;1.07;;;;;;;;;;5080895;28;20428;-66
2021/12/14 12:59:42;;;;;;;1.60;0.97;;;;;;;;;;5080107;28;20425;-66
2021/12/14 13:02:13;;;;;;;2.43;1.07;;;;;;;;;;5081007;28;20457;-67
2021/12/14 13:04:43;;;;;;;1.80;1.00;;;;;;;;;;5080648;28;20432;-67
2021/12/14 13:07:09;;;;;;;1.80;0.90;;;;;;;;;;5099474;28;20417;-71
2021/12/14 13:09:54;;;;;;;7.33;1.20;;;;;;;;;;5080777;28;20402;-67
2021/12/14 13:12:39;;;;;;;1.80;1.00;;;;;;;;;;5099220;28;20754;-68
2021/12/14 13:15:05;;;;;;;1.77;0.90;;;;;;;;;;5081306;28;20480;-67
2021/12/14 13:17:31;;;;;;;1.93;1.20;;;;;;;;;;5099246;28;20478;-68
2021/12/14 13:20:01;;;;;;;4.97;1.37;;;;;;;;;;5078391;28;20984;-66
2021/12/14 13:22:27;;;;;;;3.17;0.80;;;;;;;;;;5077602;28;20453;-68
2021/12/14 13:24:54;;;;;;;2.53;1.00;;;;;;;;;;5077521;28;20414;-68
2021/12/14 13:27:21;;;;;;;2.23;0.90;;;;;;;;;;5077663;28;20450;-67
2021/12/14 13:29:51;;;;;;;7.10;1.00;;;;;;;;;;5077319;28;20463;-67
2021/12/14 13:32:37;;;;;;;1.00;0.60;;;;;;;;;;5076923;28;20497;-66
2021/12/14 13:35:06;;;;;;;4.73;1.40;;;;;;;;;;5077494;28;20405;-66
2021/12/14 13:37:53;;;;;;;5.33;1.57;;;;;;;;;;5094912;28;20438;-66
2021/12/14 13:40:22;;;;;;;6.70;1.97;;;;;;;;;;5094965;28;20422;-66
2021/12/14 13:42:51;;;;;;;3.23;1.40;;;;;;;;;;5095772;28;20465;-65
2021/12/14 13:45:20;;;;;;;2.73;1.10;;;;;;;;;;5095510;28;20409;-66
2021/12/14 13:47:47;;;;;;;2.13;1.10;;;;;;;;;;5077310;28;20500;-66
2021/12/14 13:50:17;;;;;;;2.03;1.27;;;;;;;;;;5076121;28;20508;-68
2021/12/14 13:52:43;;;;;;;2.60;1.13;;;;;;;;;;5076908;28;20455;-68
2021/12/14 13:55:15;;;;;;;3.73;1.50;;;;;;;;;;5076871;28;20422;-67
2021/12/14 13:57:50;;;;;;;3.57;1.30;;;;;;;;;;5076621;28;20442;-67
2021/12/14 14:00:22;;;;;;;2.50;1.30;;;;;;;;;;5076955;28;20418;-67
2021/12/14 14:02:49;;;;;;;2.00;1.10;;;;;;;;;;5076892;28;20550;-67
2021/12/14 14:05:15;;;;;;;3.20;1.40;;;;;;;;;;5094914;28;20481;-66
2021/12/14 14:07:41;;;;;;;2.67;1.40;;;;;;;;;;5077109;28;20433;-66
2021/12/14 14:10:08;;;;;;;4.43;1.30;;;;;;;;;;5076742;28;20456;-66
2021/12/14 14:12:46;;;;;;;6.57;1.27;;;;;;;;;;5077058;28;20410;-68
2021/12/14 14:15:18;;;;;;;2.90;1.10;;;;;;;;;;5077159;28;20442;-67
2021/12/14 14:17:50;;;;;;;5.63;1.60;;;;;;;;;;5077039;28;20433;-67
2021/12/14 14:20:19;;;;;;;2.13;1.23;;;;;;;;;;5076823;28;20409;-69
2021/12/14 14:22:45;;;;;;;2.40;1.40;;;;;;;;;;5076453;28;20458;-66
2021/12/14 14:25:17;;;;;;;2.73;1.30;;;;;;;;;;5076787;28;20894;-67
2021/12/14 14:27:46;;;;;;;4.80;1.47;;;;;;;;;;5095064;28;20418;-69
2021/12/14 14:30:12;;;;;;;2.60;1.30;;;;;;;;;;5094456;28;20402;-67
2021/12/14 14:32:57;;;;;;;1.80;1.23;;;;;;;;;;5093929;28;20402;-67
2021/12/14 14:35:38;;;;;;;2.37;1.20;;;;;;;;;;5076395;28;20430;-67
2021/12/14 14:38:23;;;;;;;2.23;1.30;;;;;;;;;;5076013;28;20438;-68
2021/12/14 14:40:49;;;;;;;3.10;1.30;;;;;;;;;;5075912;28;20405;-69
2021/12/14 14:43:15;;;;;;;4.20;1.40;;;;;;;;;;5073290;28;20468;-72
2021/12/14 14:45:43;;;;;;;2.00;1.17;;;;;;;;;;5075946;28;20414;-68
2021/12/14 14:48:20;;;;;;;7.37;1.20;;;;;;;;;;5094298;28;20418;-67
2021/12/14 14:50:48;;;;;;;2.60;1.20;;;;;;;;;;5075831;28;20418;-67
2021/12/14 14:53:16;;;;;;;4.20;1.07;;;;;;;;;;5076206;28;20414;-66
2021/12/14 14:55:47;;;;;;;1.90;1.20;;;;;;;;;;5075615;28;20918;-67
2021/12/14 14:58:21;;;;;;;1.80;1.20;;;;;;;;;;5075930;28;20453;-67
2021/12/14 15:00:47;;;;;;;1.67;1.07;;;;;;;;;;5075845;28;20507;-67
2021/12/14 15:03:18;;;;;;;3.77;1.00;;;;;;;;;;5075658;28;20460;-66
2021/12/14 15:05:52;;;;;;;1.63;1.00;;;;;;;;;;5076036;28;20897;-67
2021/12/14 15:08:19;;;;;;;2.90;1.23;;;;;;;;;;5075249;28;20773;-67
2021/12/14 15:10:54;;;;;;;4.60;1.07;;;;;;;;;;5075660;28;20410;-67
2021/12/14 15:13:45;;;;;;;3.10;1.07;;;;;;;;;;5076219;28;20410;-67
2021/12/14 15:16:23;;;;;;;2.10;1.03;;;;;;;;;;5075923;28;20413;-66
2021/12/14 15:18:51;;;;;;;1.40;1.07;;;;;;;;;;5075700;28;20434;-66
2021/12/14 15:21:30;;;;;;;2.37;1.07;;;;;;;;;;5075134;28;20414;-68
2021/12/14 15:23:56;;;;;;;1.87;1.13;;;;;;;;;;5075722;28;20430;-67
2021/12/14 15:26:23;;;;;;;2.60;1.27;;;;;;;;;;5075521;28;20438;-66
2021/12/14 15:29:08;;;;;;;1.77;1.00;;;;;;;;;;5075038;28;20434;-65
2021/12/14 15:31:34;;;;;;;1.70;1.00;;;;;;;;;;5078425;28;20438;-67
2021/12/14 15:34:00;;;;;;;2.17;0.90;;;;;;;;;;5075412;28;20924;-66
2021/12/14 15:36:27;;;;;;;2.03;1.10;;;;;;;;;;5079267;28;20881;-68
2021/12/14 15:39:07;;;;;;;2.67;1.20;;;;;;;;;;5092380;28;20969;-68
2021/12/14 15:41:36;;;;;;;1.47;1.07;;;;;;;;;;5091508;28;20501;-65